sensor_id;sensor_type;location;lat;lon;timestamp;P1;durP1;ratioP1;P2;durP2;ratioP2
28180;SDS011;15464;50.988;10.318;2022-11-13T12:34:30;18.30;;;14.50;;
28180;SDS011;15464;50.988;10.318;2022-11-13T12:37:05;16.70;;;13.75;;
28180;SDS011;15464;50.988;10.318;2022-11-13T12:39:43;13.00;;;11.57;;
28180;SDS011;15464;50.988;10.318;2022-11-13T12:42:22;13.43;;;11.80;;
28180;SDS011;15464;50.988;10.318;2022-11-13T12:45:07;15.82;;;12.85;;
28180;SDS011;15464;50.988;10.318;2022-11-13T12:47:41;12.80;;;11.38;;
28180;SDS011;15464;50.988;10.318;2022-11-13T12:50:27;12.48;;;11.18;;
28180;SDS011;15464;50.988;10.318;2022-11-13T12:53:02;12.98;;;10.73;;
28180;SDS011;15464;50.988;10.318;2022-11-13T12:55:35;14.05;;;11.07;;
28180;SDS011;15464;50.988;10.318;2022-11-13T12:58:17;13.30;;;11.90;;
28180;SDS011;15464;50.988;10.318;2022-11-13T13:00:54;12.85;;;11.48;;
28180;SDS011;15464;50.988;10.318;2022-11-13T13:15:26;13.73;;;12.13;;
28180;SDS011;15464;50.988;10.318;2022-11-13T13:23:41;14.82;;;12.63;;
28180;SDS011;15464;50.988;10.318;2022-11-13T13:28:42;15.65;;;13.50;;
28180;SDS011;15464;50.988;10.318;2022-11-13T13:34:13;13.95;;;12.02;;
28180;SDS011;15464;50.988;10.318;2022-11-13T13:39:20;15.00;;;12.77;;
28180;SDS011;15464;50.988;10.318;2022-11-13T13:44:56;17.10;;;15.15;;
28180;SDS011;15464;50.988;10.318;2022-11-13T13:47:33;16.65;;;14.93;;
28180;SDS011;15464;50.988;10.318;2022-11-13T13:50:06;17.92;;;15.95;;
28180;SDS011;15464;50.988;10.318;2022-11-13T13:52:39;16.25;;;14.02;;
28180;SDS011;15464;50.988;10.318;2022-11-13T13:55:16;16.80;;;14.95;;
28180;SDS011;15464;50.988;10.318;2022-11-13T13:57:47;20.42;;;18.27;;
28180;SDS011;15464;50.988;10.318;2022-11-13T14:00:15;21.75;;;19.38;;
28180;SDS011;15464;50.988;10.318;2022-11-13T14:07:56;22.38;;;19.00;;
28180;SDS011;15464;50.988;10.318;2022-11-13T14:10:24;23.38;;;20.88;;
28180;SDS011;15464;50.988;10.318;2022-11-13T14:12:53;23.98;;;21.48;;
28180;SDS011;15464;50.988;10.318;2022-11-13T14:15:22;23.23;;;20.80;;
28180;SDS011;15464;50.988;10.318;2022-11-13T14:18:04;21.95;;;19.75;;
28180;SDS011;15464;50.988;10.318;2022-11-13T14:20:38;23.10;;;20.70;;
28180;SDS011;15464;50.988;10.318;2022-11-13T14:25:55;25.20;;;21.83;;
28180;SDS011;15464;50.988;10.318;2022-11-13T14:28:29;26.00;;;23.38;;
28180;SDS011;15464;50.988;10.318;2022-11-13T14:31:03;28.83;;;25.23;;
28180;SDS011;15464;50.988;10.318;2022-11-13T14:33:42;30.50;;;24.38;;
28180;SDS011;15464;50.988;10.318;2022-11-13T14:36:11;28.98;;;25.80;;
28180;SDS011;15464;50.988;10.318;2022-11-13T14:38:43;28.65;;;25.42;;
28180;SDS011;15464;50.988;10.318;2022-11-13T14:41:20;28.83;;;25.73;;
28180;SDS011;15464;50.988;10.318;2022-11-13T14:43:50;26.63;;;23.60;;
28180;SDS011;15464;50.988;10.318;2022-11-13T14:46:33;30.33;;;25.77;;
28180;SDS011;15464;50.988;10.318;2022-11-13T14:49:11;29.75;;;26.52;;
28180;SDS011;15464;50.988;10.318;2022-11-13T14:51:39;28.98;;;25.50;;
28180;SDS011;15464;50.988;10.318;2022-11-13T14:54:25;30.33;;;27.00;;
28180;SDS011;15464;50.988;10.318;2022-11-13T14:57:07;29.38;;;25.55;;
28180;SDS011;15464;50.988;10.318;2022-11-13T15:02:03;27.73;;;24.55;;
28180;SDS011;15464;50.988;10.318;2022-11-13T15:04:30;29.10;;;24.73;;
28180;SDS011;15464;50.988;10.318;2022-11-13T15:07:18;36.10;;;29.88;;
28180;SDS011;15464;50.988;10.318;2022-11-13T15:09:55;26.50;;;22.60;;
28180;SDS011;15464;50.988;10.318;2022-11-13T15:12:22;26.92;;;22.85;;
28180;SDS011;15464;50.988;10.318;2022-11-13T15:14:49;28.73;;;25.02;;
28180;SDS011;15464;50.988;10.318;2022-11-13T15:17:17;29.00;;;24.52;;
28180;SDS011;15464;50.988;10.318;2022-11-13T15:19:47;28.75;;;25.20;;
28180;SDS011;15464;50.988;10.318;2022-11-13T15:22:16;29.85;;;24.13;;
28180;SDS011;15464;50.988;10.318;2022-11-13T15:24:53;31.67;;;26.80;;
28180;SDS011;15464;50.988;10.318;2022-11-13T15:27:20;33.28;;;28.05;;
28180;SDS011;15464;50.988;10.318;2022-11-13T15:29:46;37.30;;;31.20;;
28180;SDS011;15464;50.988;10.318;2022-11-13T15:32:13;37.80;;;31.08;;
28180;SDS011;15464;50.988;10.318;2022-11-13T15:34:41;38.05;;;30.20;;
28180;SDS011;15464;50.988;10.318;2022-11-13T15:37:09;43.05;;;33.40;;
28180;SDS011;15464;50.988;10.318;2022-11-13T15:39:40;36.33;;;29.75;;
28180;SDS011;15464;50.988;10.318;2022-11-13T15:42:10;36.47;;;29.90;;
28180;SDS011;15464;50.988;10.318;2022-11-13T15:44:39;44.05;;;34.58;;
28180;SDS011;15464;50.988;10.318;2022-11-13T15:47:17;44.65;;;34.38;;
28180;SDS011;15464;50.988;10.318;2022-11-13T15:49:55;50.53;;;36.95;;
28180;SDS011;15464;50.988;10.318;2022-11-13T15:52:39;40.72;;;33.00;;
28180;SDS011;15464;50.988;10.318;2022-11-13T15:55:14;46.13;;;34.50;;
28180;SDS011;15464;50.988;10.318;2022-11-13T15:57:49;43.20;;;31.20;;
28180;SDS011;15464;50.988;10.318;2022-11-13T16:00:17;52.03;;;37.72;;
28180;SDS011;15464;50.988;10.318;2022-11-13T16:02:46;42.10;;;33.35;;
28180;SDS011;15464;50.988;10.318;2022-11-13T16:05:15;39.13;;;31.20;;
28180;SDS011;15464;50.988;10.318;2022-11-13T16:07:43;39.25;;;29.92;;
28180;SDS011;15464;50.988;10.318;2022-11-13T16:10:10;31.00;;;27.00;;
28180;SDS011;15464;50.988;10.318;2022-11-13T16:12:36;49.40;;;37.08;;
28180;SDS011;15464;50.988;10.318;2022-11-13T16:15:03;36.50;;;30.25;;
28180;SDS011;15464;50.988;10.318;2022-11-13T16:17:30;30.98;;;26.45;;
28180;SDS011;15464;50.988;10.318;2022-11-13T16:20:04;30.50;;;25.88;;
28180;SDS011;15464;50.988;10.318;2022-11-13T16:22:33;38.88;;;29.60;;
28180;SDS011;15464;50.988;10.318;2022-11-13T16:24:59;49.83;;;34.45;;
28180;SDS011;15464;50.988;10.318;2022-11-13T16:27:30;42.47;;;32.75;;
28180;SDS011;15464;50.988;10.318;2022-11-13T16:29:59;44.03;;;33.20;;
28180;SDS011;15464;50.988;10.318;2022-11-13T16:32:32;46.33;;;34.55;;
28180;SDS011;15464;50.988;10.318;2022-11-13T16:34:58;64.13;;;37.90;;
28180;SDS011;15464;50.988;10.318;2022-11-13T16:37:25;46.88;;;34.30;;
28180;SDS011;15464;50.988;10.318;2022-11-13T16:39:52;45.15;;;34.38;;
28180;SDS011;15464;50.988;10.318;2022-11-13T16:42:18;34.00;;;28.35;;
28180;SDS011;15464;50.988;10.318;2022-11-13T16:44:45;34.65;;;28.52;;
28180;SDS011;15464;50.988;10.318;2022-11-13T16:47:30;56.08;;;36.65;;
28180;SDS011;15464;50.988;10.318;2022-11-13T16:49:58;36.78;;;29.40;;
28180;SDS011;15464;50.988;10.318;2022-11-13T16:52:26;46.45;;;34.00;;
28180;SDS011;15464;50.988;10.318;2022-11-13T16:54:53;51.33;;;36.53;;
28180;SDS011;15464;50.988;10.318;2022-11-13T16:57:19;54.70;;;37.75;;
28180;SDS011;15464;50.988;10.318;2022-11-13T16:59:46;47.78;;;34.28;;
28180;SDS011;15464;50.988;10.318;2022-11-13T17:02:13;46.10;;;33.28;;
28180;SDS011;15464;50.988;10.318;2022-11-13T17:04:42;48.65;;;35.30;;
28180;SDS011;15464;50.988;10.318;2022-11-13T17:07:10;46.70;;;35.20;;
28180;SDS011;15464;50.988;10.318;2022-11-13T17:09:42;62.70;;;41.20;;
28180;SDS011;15464;50.988;10.318;2022-11-13T17:12:10;65.50;;;42.88;;
28180;SDS011;15464;50.988;10.318;2022-11-13T17:14:37;56.50;;;38.60;;
28180;SDS011;15464;50.988;10.318;2022-11-13T17:17:05;48.35;;;35.25;;
28180;SDS011;15464;50.988;10.318;2022-11-13T17:19:36;56.72;;;40.03;;
28180;SDS011;15464;50.988;10.318;2022-11-13T17:22:09;48.10;;;35.63;;
28180;SDS011;15464;50.988;10.318;2022-11-13T17:24:37;54.97;;;38.15;;
28180;SDS011;15464;50.988;10.318;2022-11-13T17:27:04;50.78;;;35.88;;
28180;SDS011;15464;50.988;10.318;2022-11-13T17:29:31;63.55;;;42.38;;
28180;SDS011;15464;50.988;10.318;2022-11-13T17:31:59;61.65;;;42.25;;
28180;SDS011;15464;50.988;10.318;2022-11-13T17:34:25;64.82;;;41.03;;
28180;SDS011;15464;50.988;10.318;2022-11-13T17:36:52;62.08;;;43.50;;
28180;SDS011;15464;50.988;10.318;2022-11-13T17:41:48;71.03;;;47.80;;
28180;SDS011;15464;50.988;10.318;2022-11-13T17:44:15;55.50;;;38.80;;
28180;SDS011;15464;50.988;10.318;2022-11-13T17:46:42;54.67;;;38.03;;
28180;SDS011;15464;50.988;10.318;2022-11-13T17:49:09;54.70;;;36.97;;
28180;SDS011;15464;50.988;10.318;2022-11-13T17:51:36;62.78;;;40.67;;
28180;SDS011;15464;50.988;10.318;2022-11-13T17:54:03;76.00;;;49.45;;
28180;SDS011;15464;50.988;10.318;2022-11-13T17:56:30;70.20;;;43.92;;
28180;SDS011;15464;50.988;10.318;2022-11-13T17:58:56;77.43;;;46.85;;
28180;SDS011;15464;50.988;10.318;2022-11-13T18:01:23;74.38;;;46.22;;
28180;SDS011;15464;50.988;10.318;2022-11-13T18:03:53;75.93;;;46.13;;
28180;SDS011;15464;50.988;10.318;2022-11-13T18:06:23;71.22;;;43.75;;
28180;SDS011;15464;50.988;10.318;2022-11-13T18:08:50;65.35;;;40.80;;
28180;SDS011;15464;50.988;10.318;2022-11-13T18:11:21;74.40;;;46.15;;
28180;SDS011;15464;50.988;10.318;2022-11-13T18:13:50;82.55;;;48.05;;
28180;SDS011;15464;50.988;10.318;2022-11-13T18:16:21;83.13;;;48.97;;
28180;SDS011;15464;50.988;10.318;2022-11-13T18:18:55;72.47;;;45.42;;
28180;SDS011;15464;50.988;10.318;2022-11-13T18:21:24;68.32;;;41.55;;
28180;SDS011;15464;50.988;10.318;2022-11-13T18:26:23;80.78;;;45.85;;
28180;SDS011;15464;50.988;10.318;2022-11-13T18:28:50;74.25;;;43.65;;
28180;SDS011;15464;50.988;10.318;2022-11-13T18:31:17;72.57;;;43.78;;
28180;SDS011;15464;50.988;10.318;2022-11-13T18:33:46;81.45;;;43.92;;
28180;SDS011;15464;50.988;10.318;2022-11-13T18:36:13;75.55;;;42.97;;
28180;SDS011;15464;50.988;10.318;2022-11-13T18:38:40;81.15;;;44.80;;
28180;SDS011;15464;50.988;10.318;2022-11-13T18:41:09;64.43;;;40.33;;
